Time;durP1;ratioP1;P1;durP2;ratioP2;P2;SDS_P1;SDS_P2;PMS_P1;PMS_P2;Temp;Humidity;BMP_temperature;BMP_pressure;BME280_temperature;BME280_humidity;BME280_pressure;Samples;Min_cycle;Max_cycle;Signal;HPM_P1;HPM_P2
2022/10/31 00:00:14;;;;;;;;;;;;;;;21.80;67.00;101384.13;5008170;28;2925;-59
2022/10/31 00:02:41;;;;;;;;;;;;;;;21.79;67.15;101376.91;5017310;28;2333;-59
2022/10/31 00:05:07;;;;;;;;;;;;;;;21.80;67.24;101383.41;5017999;28;2774;-59
2022/10/31 00:07:33;;;;;;;;;;;;;;;21.78;66.93;101386.91;5015423;28;3168;-59
2022/10/31 00:10:00;;;;;;;;;;;;;;;21.79;67.25;101381.91;5011638;28;2944;-59
2022/10/31 00:12:26;;;;;;;;;;;;;;;21.78;67.30;101386.91;5011930;28;3165;-59
2022/10/31 00:14:52;;;;;;;;;;;;;;;21.78;67.26;101386.19;5008525;28;2934;-59
2022/10/31 00:17:19;;;;;;;;;;;;;;;21.78;67.24;101377.53;5012664;28;2889;-59
2022/10/31 00:19:45;;;;;;;;;;;;;;;21.79;66.94;101381.91;5014707;28;2774;-59
2022/10/31 00:22:11;;;;;;;;;;;;;;;21.77;66.91;101390.47;5010514;28;2944;-59
2022/10/31 00:24:38;;;;;;;;;;;;;;;21.78;67.02;101400.59;5011450;28;2813;-59
2022/10/31 00:27:04;;;;;;;;;;;;;;;21.77;67.02;101399.84;5013609;28;2822;-59
2022/10/31 00:29:30;;;;;;;;;;;;;;;21.76;67.32;101401.22;5017978;28;2819;-59
2022/10/31 00:31:57;;;;;;;;;;;;;;;21.75;66.95;101403.38;5013408;28;3384;-59
2022/10/31 00:37:17;;;;;;;;;;;;;;;21.74;67.20;101410.53;4928656;28;3189;-59
2022/10/31 00:39:45;;;;;;;;;;;;;;;21.75;67.32;101408.41;4913312;29;2805;-59
2022/10/31 00:42:11;;;;;;;;;;;;;;;21.75;66.87;101412.03;4914896;29;3051;-59
2022/10/31 00:44:37;;;;;;;;;;;;;;;21.74;67.22;101410.53;4918549;29;3174;-59
2022/10/31 00:47:03;;;;;;;;;;;;;;;21.74;66.80;101415.56;4915240;29;2997;-59
2022/10/31 00:49:30;;;;;;;;;;;;;;;21.74;66.90;101415.56;4946910;28;2639;-59
2022/10/31 00:51:56;;;;;;;;;;;;;;;21.74;66.96;101422.06;4919659;29;2915;-58
2022/10/31 00:54:22;;;;;;;;;;;;;;;21.73;67.12;101426.31;4943558;28;2855;-59
2022/10/31 00:56:49;;;;;;;;;;;;;;;21.73;66.91;101425.59;4947453;28;3145;-59
2022/10/31 00:59:15;;;;;;;;;;;;;;;21.71;66.76;101432.00;4931713;28;2827;-59
2022/10/31 01:01:42;;;;;;;;;;;;;;;21.72;66.85;101430.63;4917349;29;3114;-59
2022/10/31 01:04:08;;;;;;;;;;;;;;;21.71;66.97;101431.25;4949630;28;2938;-59
2022/10/31 01:06:34;;;;;;;;;;;;;;;21.71;66.73;101432.00;4915400;29;2930;-59
2022/10/31 01:09:01;;;;;;;;;;;;;;;21.70;67.02;101433.41;4920264;28;3322;-59
2022/10/31 01:11:27;;;;;;;;;;;;;;;21.70;67.01;101435.53;4931897;28;3449;-59
2022/10/31 01:13:53;;;;;;;;;;;;;;;21.71;66.79;101434.88;4916540;29;2871;-59
2022/10/31 01:16:21;;;;;;;;;;;;;;;21.69;67.00;101431.91;4913912;29;2804;-59
2022/10/31 01:18:48;;;;;;;;;;;;;;;21.71;66.80;101434.13;4946606;28;2876;-59
2022/10/31 01:21:22;;;;;;;;;;;;;;;21.69;66.75;101431.91;4913726;29;3189;-59
2022/10/31 01:23:48;;;;;;;;;;;;;;;21.69;66.85;101431.91;4930444;28;2733;-59
2022/10/31 01:26:15;;;;;;;;;;;;;;;21.68;66.73;101433.28;4928652;28;3178;-59
2022/10/31 01:28:49;;;;;;;;;;;;;;;21.68;66.97;101433.28;4914836;29;2935;-59
2022/10/31 01:31:15;;;;;;;;;;;;;;;21.67;67.03;101434.69;4914345;29;2957;-59
2022/10/31 01:33:42;;;;;;;;;;;;;;;21.67;66.71;101434.69;4947264;28;2906;-59
2022/10/31 01:36:12;;;;;;;;;;;;;;;21.67;66.66;101434.69;4915577;29;2935;-59
2022/10/31 01:38:38;;;;;;;;;;;;;;;21.67;66.56;101434.69;4916938;29;2809;-59
2022/10/31 01:41:05;;;;;;;;;;;;;;;21.67;66.91;101443.34;4915483;29;3201;-59
2022/10/31 01:43:48;;;;;;;;;;;;;;;21.66;66.60;101438.94;4919402;29;2867;-59
2022/10/31 01:46:15;;;;;;;;;;;;;;;21.65;66.52;101451.88;4915850;29;2900;-59
2022/10/31 01:48:42;;;;;;;;;;;;;;;21.66;66.88;101443.97;4933947;28;3219;-59
2022/10/31 01:51:09;;;;;;;;;;;;;;;21.65;66.64;101443.22;4916805;29;3003;-59
2022/10/31 01:53:35;;;;;;;;;;;;;;;21.66;66.51;101430.31;4911399;29;3226;-59
2022/10/31 01:56:01;;;;;;;;;;;;;;;21.66;66.77;101438.94;4931931;28;2993;-59
2022/10/31 01:58:29;;;;;;;;;;;;;;;21.65;66.85;101446.13;4931543;28;3234;-59
2022/10/31 02:00:57;;;;;;;;;;;;;;;21.65;66.62;101448.25;4914311;29;2896;-59
2022/10/31 02:03:28;;;;;;;;;;;;;;;21.63;66.42;101446.00;4927542;28;2971;-59
2022/10/31 02:05:55;;;;;;;;;;;;;;;21.63;66.42;101440.25;4917438;29;2907;-59
2022/10/31 02:08:26;;;;;;;;;;;;;;;21.60;66.62;101443.66;4917315;29;3136;-59
2022/10/31 02:10:52;;;;;;;;;;;;;;;21.57;66.88;101445.69;4930113;28;2779;-59
2022/10/31 02:13:19;;;;;;;;;;;;;;;21.58;66.88;101447.19;4931332;28;2924;-59
2022/10/31 02:15:49;;;;;;;;;;;;;;;21.62;66.62;101441.63;4930315;28;2986;-59
2022/10/31 02:18:15;;;;;;;;;;;;;;;21.62;66.50;101441.63;4929736;28;2768;-59
2022/10/31 02:20:48;;;;;;;;;;;;;;;21.62;66.71;101441.63;4915930;29;3235;-59
2022/10/31 02:23:14;;;;;;;;;;;;;;;21.58;66.34;101444.31;4915224;29;2939;-59
2022/10/31 02:26:04;;;;;;;;;;;;;;;21.56;66.52;101452.13;4931637;28;3001;-59
2022/10/31 02:28:34;;;;;;;;;;;;;;;21.55;66.51;101445.59;4909185;29;2813;-59
2022/10/31 02:31:05;;;;;;;;;;;;;;;21.54;66.51;101449.88;4911016;29;2952;-59
2022/10/31 02:33:35;;;;;;;;;;;;;;;21.53;66.80;101445.47;4917125;29;3289;-59
2022/10/31 02:36:02;;;;;;;;;;;;;;;21.54;66.79;101455.63;4915150;29;2933;-59
2022/10/31 02:38:42;;;;;;;;;;;;;;;21.56;66.53;101449.97;4914241;29;3091;-59
2022/10/31 02:41:19;;;;;;;;;;;;;;;21.53;66.80;101469.31;4901915;29;2777;-59
2022/10/31 02:43:58;;;;;;;;;;;;;;;21.53;66.87;101465.66;4927185;28;2780;-59
2022/10/31 02:46:26;;;;;;;;;;;;;;;21.52;66.75;101464.19;4910487;29;3011;-59
2022/10/31 02:48:53;;;;;;;;;;;;;;;21.50;67.05;101461.94;4930265;28;2578;-59
2022/10/31 02:51:19;;;;;;;;;;;;;;;21.52;66.78;101464.19;4931352;28;3065;-58
2022/10/31 02:53:46;;;;;;;;;;;;;;;21.56;66.58;101464.38;4897201;29;3044;-59
2022/10/31 02:56:16;;;;;;;;;;;;;;;21.57;66.54;101470.88;4931385;28;2947;-59
2022/10/31 02:59:04;;;;;;;;;;;;;;;21.53;66.22;101471.41;4931208;28;2990;-59
2022/10/31 03:01:39;;;;;;;;;;;;;;;21.50;66.64;101466.94;4912779;29;2906;-59
2022/10/31 03:04:17;;;;;;;;;;;;;;;21.50;66.53;101470.56;4930603;28;2735;-59
2022/10/31 03:06:55;;;;;;;;;;;;;;;21.49;66.62;101471.97;4915794;29;2881;-59
2022/10/31 03:09:23;;;;;;;;;;;;;;;21.52;66.15;101475.69;4933124;28;2881;-59
2022/10/31 03:12:07;;;;;;;;;;;;;;;21.51;66.11;101472.09;4918150;29;3003;-59
2022/10/31 03:14:47;;;;;;;;;;;;;;;21.51;66.44;101471.34;4914356;29;2714;-59
2022/10/31 03:17:16;;;;;;;;;;;;;;;21.49;66.43;101474.84;4912132;29;2914;-59
2022/10/31 03:19:43;;;;;;;;;;;;;;;21.48;66.38;101482.00;4929507;28;2839;-59
2022/10/31 03:22:14;;;;;;;;;;;;;;;21.48;66.47;101481.25;4929024;28;3007;-59
2022/10/31 03:24:42;;;;;;;;;;;;;;;21.49;66.17;101489.25;4915112;29;3180;-59
2022/10/31 03:27:09;;;;;;;;;;;;;;;21.47;66.38;101497.78;4927723;28;2799;-59
2022/10/31 03:29:36;;;;;;;;;;;;;;;21.46;66.21;101502.09;4916156;29;2658;-59
2022/10/31 03:32:07;;;;;;;;;;;;;;;21.50;66.01;101498.66;4913836;29;2903;-59
2022/10/31 03:34:35;;;;;;;;;;;;;;;21.52;66.06;101498.75;4932903;28;3080;-59
2022/10/31 03:37:01;;;;;;;;;;;;;;;21.52;65.86;101499.50;4931747;28;2757;-59
2022/10/31 03:39:28;;;;;;;;;;;;;;;21.51;66.09;101503.03;4912937;29;2796;-59
2022/10/31 03:42:20;;;;;;;;;;;;;;;21.53;65.85;101500.22;4929608;28;2954;-59
2022/10/31 03:44:49;;;;;;;;;;;;;;;21.58;66.03;101506.97;4911649;29;2867;-59
2022/10/31 03:47:16;;;;;;;;;;;;;;;21.59;65.71;101512.09;4925182;28;2868;-59
2022/10/31 03:49:47;;;;;;;;;;;;;;;21.61;65.65;101506.44;4930807;28;3159;-59
2022/10/31 03:52:17;;;;;;;;;;;;;;;21.61;65.89;101512.19;4929936;28;2921;-59
2022/10/31 03:54:44;;;;;;;;;;;;;;;21.62;65.72;101510.78;4915438;29;2862;-59
2022/10/31 03:57:16;;;;;;;;;;;;;;;21.63;66.16;101520.94;4931293;28;2851;-59
2022/10/31 03:59:44;;;;;;;;;;;;;;;21.64;66.41;101515.94;4914975;29;2893;-59
2022/10/31 04:02:16;;;;;;;;;;;;;;;21.62;66.35;101519.44;4928536;29;2916;-59
2022/10/31 04:04:43;;;;;;;;;;;;;;;21.60;66.48;101521.47;4917193;29;2872;-59
2022/10/31 04:07:11;;;;;;;;;;;;;;;21.58;66.52;101524.25;4916136;29;3043;-60
2022/10/31 04:09:38;;;;;;;;;;;;;;;21.58;66.40;101519.25;4916751;29;3226;-59
2022/10/31 04:12:05;;;;;;;;;;;;;;;21.62;66.37;101525.19;4934530;28;2970;-59
2022/10/31 04:14:51;;;;;;;;;;;;;;;21.63;66.23;101520.94;4933059;28;3000;-59
2022/10/31 04:17:18;;;;;;;;;;;;;;;21.65;66.34;101526.09;4918102;29;2897;-59
2022/10/31 04:19:44;;;;;;;;;;;;;;;21.64;66.33;101518.81;4917973;29;2718;-59
2022/10/31 04:22:11;;;;;;;;;;;;;;;21.62;66.39;101524.47;4935681;28;2815;-59
2022/10/31 04:24:38;;;;;;;;;;;;;;;21.60;66.51;101528.00;4915553;29;2919;-59
2022/10/31 04:27:04;;;;;;;;;;;;;;;21.63;66.46;101526.72;4929450;28;2721;-59
2022/10/31 04:29:31;;;;;;;;;;;;;;;21.65;66.47;101526.81;4932265;28;2929;-60
2022/10/31 04:31:57;;;;;;;;;;;;;;;21.67;66.35;101529.81;4932024;28;2820;-59
2022/10/31 04:34:24;;;;;;;;;;;;;;;21.65;66.32;101531.84;4920969;29;2908;-59
2022/10/31 04:36:51;;;;;;;;;;;;;;;21.67;66.37;101532.69;4932334;28;2897;-59
2022/10/31 04:39:17;;;;;;;;;;;;;;;21.64;66.39;101528.19;4920011;29;2845;-59
2022/10/31 04:42:17;;;;;;;;;;;;;;;21.62;66.31;101530.97;4920219;29;2833;-59
2022/10/31 04:44:43;;;;;;;;;;;;;;;21.62;66.69;101530.22;4916214;29;2877;-59
2022/10/31 04:47:09;;;;;;;;;;;;;;;21.62;66.87;101536.72;4918496;29;2888;-59
2022/10/31 04:49:36;;;;;;;;;;;;;;;21.62;66.50;101530.97;4935186;28;3246;-58
2022/10/31 04:52:02;;;;;;;;;;;;;;;21.62;66.28;101538.88;4933543;29;2882;-59
2022/10/31 04:54:29;;;;;;;;;;;;;;;21.62;66.66;101536.00;4918265;29;2815;-59
2022/10/31 04:57:39;;;;;;;;;;;;;;;21.61;66.76;101532.38;4921555;28;2913;-59
2022/10/31 05:00:06;;;;;;;;;;;;;;;21.59;66.82;101532.25;4934126;28;2988;-59
2022/10/31 05:02:33;;;;;;;;;;;;;;;21.61;66.62;101534.50;4933061;28;2900;-59
2022/10/31 05:04:59;;;;;;;;;;;;;;;21.62;66.22;101542.50;4918881;29;2827;-59
2022/10/31 05:07:26;;;;;;;;;;;;;;;21.63;66.63;101537.50;4933530;28;2755;-59
2022/10/31 05:09:53;;;;;;;;;;;;;;;21.66;66.40;101541.97;4917422;29;2932;-59
2022/10/31 05:12:19;;;;;;;;;;;;;;;21.67;66.21;101544.22;4931921;28;2944;-59
2022/10/31 05:15:08;;;;;;;;;;;;;;;21.72;66.26;101551.69;4917806;28;2715;-59
2022/10/31 05:18:01;;;;;;;;;;;;;;;21.72;66.14;101548.06;4916396;29;2928;-59
2022/10/31 05:20:46;;;;;;;;;;;;;;;21.65;66.26;101541.22;4917322;29;3237;-59
2022/10/31 05:23:24;;;;;;;;;;;;;;;21.65;66.45;101541.22;4934888;28;2909;-59
2022/10/31 05:25:50;;;;;;;;;;;;;;;21.65;66.38;101547.00;4919866;29;2899;-59
2022/10/31 05:28:17;;;;;;;;;;;;;;;21.66;66.66;101544.84;4931626;28;2596;-59
2022/10/31 05:30:43;;;;;;;;;;;;;;;21.65;66.53;101555.66;4916688;29;3009;-59
2022/10/31 05:33:13;;;;;;;;;;;;;;;21.66;66.52;101554.25;4931907;29;2983;-59
2022/10/31 05:35:39;;;;;;;;;;;;;;;21.65;66.54;101552.75;4914062;29;3045;-59
2022/10/31 05:38:26;;;;;;;;;;;;;;;21.63;66.73;101554.78;4916771;29;2800;-59
2022/10/31 05:40:57;;;;;;;;;;;;;;;21.63;66.62;101549.78;4931516;28;2856;-59
2022/10/31 05:43:24;;;;;;;;;;;;;;;21.64;66.69;101550.50;4930720;28;2964;-59
2022/10/31 05:45:54;;;;;;;;;;;;;;;21.64;66.57;101545.50;4934918;28;3031;-59
2022/10/31 05:48:39;;;;;;;;;;;;;;;21.65;66.58;101552.03;4918759;29;2864;-60
2022/10/31 05:51:24;;;;;;;;;;;;;;;21.63;66.71;101555.53;4914879;29;2827;-59
2022/10/31 05:53:50;;;;;;;;;;;;;;;21.64;66.37;101551.25;4914820;29;3092;-59
2022/10/31 05:56:20;;;;;;;;;;;;;;;21.64;66.45;101559.91;4931066;28;2971;-59
2022/10/31 05:58:48;;;;;;;;;;;;;;;21.65;67.15;101558.53;4929684;28;2893;-59
2022/10/31 06:01:14;;;;;;;;;;;;;;;21.72;66.39;101576.88;4917310;29;2896;-61
2022/10/31 06:03:43;;;;;;;;;;;;;;;21.72;65.99;101568.97;4930764;28;2954;-58
2022/10/31 06:06:14;;;;;;;;;;;;;;;21.21;61.67;101579.91;4928414;28;2861;-61
2022/10/31 06:08:40;;;;;;;;;;;;;;;21.31;63.80;101572.56;4929133;28;3029;-62
2022/10/31 06:11:12;;;;;;;;;;;;;;;21.46;64.56;101565.47;4931265;28;3095;-64
2022/10/31 06:13:57;;;;;;;;;;;;;;;21.63;63.85;101572.81;4916223;29;2860;-62
2022/10/31 06:16:31;;;;;;;;;;;;;;;21.61;64.34;101581.38;4925880;28;3053;-62
2022/10/31 06:19:07;;;;;;;;;;;;;;;21.60;64.18;101582.75;4914018;29;2976;-62
2022/10/31 06:21:34;;;;;;;;;;;;;;;21.62;63.93;101588.63;4930385;29;2640;-62
2022/10/31 06:24:00;;;;;;;;;;;;;;;21.64;63.84;101582.22;4930034;28;2217;-62
2022/10/31 06:26:45;;;;;;;;;;;;;;;21.65;63.96;101587.34;4913306;29;2950;-62
2022/10/31 06:29:12;;;;;;;;;;;;;;;21.63;63.84;101578.59;4915938;29;2933;-62
2022/10/31 06:31:57;;;;;;;;;;;;;;;21.64;63.92;101591.59;4916474;29;2910;-63
2022/10/31 06:34:23;;;;;;;;;;;;;;;21.64;64.15;101591.59;4935595;29;2688;-62
2022/10/31 06:36:49;;;;;;;;;;;;;;;21.64;63.74;101594.47;4915818;29;3119;-63
2022/10/31 06:39:19;;;;;;;;;;;;;;;21.64;63.76;101597.38;4931295;28;2836;-63
2022/10/31 06:41:47;;;;;;;;;;;;;;;21.62;63.91;101600.13;4928354;28;2840;-64
2022/10/31 06:44:15;;;;;;;;;;;;;;;21.80;67.06;101602.50;4922908;28;4536;-71
2022/10/31 06:46:53;;;;;;;;;;;;;;;22.36;66.45;101606.84;4914684;29;4443;-72
2022/10/31 06:49:36;;;;;;;;;;;;;;;22.52;64.83;101613.41;4931094;28;2935;-64
2022/10/31 06:52:11;;;;;;;;;;;;;;;22.65;63.96;101611.09;4930371;28;3125;-66
2022/10/31 06:54:37;;;;;;;;;;;;;;;22.78;63.50;101613.19;4915733;29;4700;-68
2022/10/31 06:57:04;;;;;;;;;;;;;;;22.81;62.35;101617.66;4928491;28;3095;-70
2022/10/31 06:59:30;;;;;;;;;;;;;;;22.91;62.33;101626.09;4921665;29;3381;-71
2022/10/31 07:02:13;;;;;;;;;;;;;;;22.95;61.65;101621.25;4912450;29;2917;-72
2022/10/31 07:04:41;;;;;;;;;;;;;;;23.02;61.06;101625.22;4921673;29;2914;-69
2022/10/31 07:07:11;;;;;;;;;;;;;;;22.89;60.78;101629.63;4933172;28;2837;-69
2022/10/31 07:09:38;;;;;;;;;;;;;;;22.95;60.48;101621.25;4915533;29;3089;-74
2022/10/31 07:12:06;;;;;;;;;;;;;;;23.00;60.38;101631.63;4932672;28;3206;-74
2022/10/31 07:14:36;;;;;;;;;;;;;;;22.85;58.91;101625.78;4938069;28;4768;-68
2022/10/31 07:17:02;;;;;;;;;;;;;;;22.73;59.35;101640.38;4928620;28;3232;-71
2022/10/31 07:19:36;;;;;;;;;;;;;;;22.74;59.26;101631.06;4931686;28;2949;-65
2022/10/31 07:22:02;;;;;;;;;;;;;;;23.05;58.47;101626.78;4929478;28;2953;-65
2022/10/31 07:24:30;;;;;;;;;;;;;;;23.26;58.38;101625.59;4931652;28;3332;-66
2022/10/31 07:27:22;;;;;;;;;;;;;;;23.42;58.97;101626.34;4914035;29;3202;-71
2022/10/31 07:29:48;;;;;;;;;;;;;;;23.03;59.79;101625.97;4908115;29;4731;-70
2022/10/31 07:32:15;;;;;;;;;;;;;;;22.91;60.64;101626.84;4927371;28;3051;-71
2022/10/31 07:34:49;;;;;;;;;;;;;;;22.87;59.85;101635.31;4928343;28;3143;-72
2022/10/31 07:37:19;;;;;;;;;;;;;;;22.64;60.43;101639.25;4912911;29;3718;-77
2022/10/31 07:39:46;;;;;;;;;;;;;;;23.05;59.77;101640.50;4914051;29;3438;-70
2022/10/31 07:42:13;;;;;;;;;;;;;;;22.65;60.35;101645.75;4930356;28;3705;-76
2022/10/31 07:44:43;;;;;;;;;;;;;;;22.23;61.06;101653.78;4933040;28;2880;-74
2022/10/31 07:47:44;;;;;;;;;;;;;;;22.20;61.77;101643.50;4919657;29;2876;-62
2022/10/31 07:50:39;;;;;;;;;;;;;;;22.18;61.92;101647.75;4915987;29;3236;-72
2022/10/31 07:53:34;;;;;;;;;;;;;;;22.19;61.82;101648.50;4916902;28;3055;-70
2022/10/31 07:56:16;;;;;;;;;;;;;;;22.17;62.09;101640.50;4927589;28;2991;-69
2022/10/31 07:58:43;;;;;;;;;;;;;;;22.20;62.11;101649.28;4930844;28;3681;-70
2022/10/31 08:01:09;;;;;;;;;;;;;;;22.16;62.37;101652.69;4930203;28;3130;-69
2022/10/31 08:03:49;;;;;;;;;;;;;;;22.12;62.45;101653.19;4917453;29;3080;-70
2022/10/31 08:06:34;;;;;;;;;;;;;;;22.13;62.85;101674.16;4921028;29;3273;-70
2022/10/31 08:09:15;;;;;;;;;;;;;;;22.13;62.68;101677.78;4910430;29;3247;-69
2022/10/31 08:11:43;;;;;;;;;;;;;;;22.11;62.76;101674.81;4918237;29;3300;-69
2022/10/31 08:14:09;;;;;;;;;;;;;;;22.05;62.88;101668.69;4931849;28;3091;-69
2022/10/31 08:16:36;;;;;;;;;;;;;;;22.06;63.08;101670.22;4933889;28;3153;-69
2022/10/31 08:19:04;;;;;;;;;;;;;;;22.01;63.29;101674.25;4915042;29;3651;-69
2022/10/31 08:21:36;;;;;;;;;;;;;;;22.02;63.07;101667.13;4929311;28;3068;-70
2022/10/31 08:24:02;;;;;;;;;;;;;;;21.96;63.30;101658.88;4931497;28;3230;-67
2022/10/31 08:26:28;;;;;;;;;;;;;;;22.24;63.25;101658.13;4926420;28;4832;-75
2022/10/31 08:28:55;;;;;;;;;;;;;;;22.83;61.62;101658.19;4933143;28;4683;-68
2022/10/31 08:31:26;;;;;;;;;;;;;;;22.73;61.73;101663.50;4931550;28;3412;-68
2022/10/31 08:34:17;;;;;;;;;;;;;;;22.66;61.93;101664.59;4921145;29;3095;-67
2022/10/31 08:37:03;;;;;;;;;;;;;;;22.66;62.04;101665.31;4915992;29;2978;-69
2022/10/31 08:39:38;;;;;;;;;;;;;;;22.75;62.23;101670.09;4935850;28;1728;-68
2022/10/31 08:42:05;;;;;;;;;;;;;;;22.88;61.45;101662.78;4937246;28;2967;-68
2022/10/31 08:44:31;;;;;;;;;;;;;;;22.88;61.71;101668.53;4936980;28;2870;-70
2022/10/31 08:46:57;;;;;;;;;;;;;;;22.81;61.72;101669.66;4931558;28;4699;-66
2022/10/31 08:49:24;;;;;;;;;;;;;;;22.77;61.74;101675.25;4933318;28;3089;-66
2022/10/31 08:51:50;;;;;;;;;;;;;;;22.77;62.18;101670.22;4935459;28;2846;-73
2022/10/31 08:54:19;;;;;;;;;;;;;;;22.90;61.47;101670.78;4935636;28;3114;-69
2022/10/31 08:56:48;;;;;;;;;;;;;;;22.90;61.68;101676.56;4918649;29;3359;-70
2022/10/31 08:59:28;;;;;;;;;;;;;;;22.95;61.65;101675.38;4918627;29;3203;-72
2022/10/31 09:02:13;;;;;;;;;;;;;;;22.88;61.99;101680.09;4920469;29;1724;-67
2022/10/31 09:04:39;;;;;;;;;;;;;;;22.74;62.49;101682.28;4938132;28;3113;-66
2022/10/31 09:07:06;;;;;;;;;;;;;;;22.73;62.36;101680.81;4934775;28;2270;-67
2022/10/31 09:09:47;;;;;;;;;;;;;;;22.75;62.18;101683.81;4918600;29;3127;-67
2022/10/31 09:12:14;;;;;;;;;;;;;;;22.86;62.05;101677.13;4920496;29;1637;-68
2022/10/31 09:15:06;;;;;;;;;;;;;;;22.74;62.59;101682.28;4926832;29;2697;-69
2022/10/31 09:17:47;;;;;;;;;;;;;;;22.80;62.32;101679.72;4936735;28;3585;-69
2022/10/31 09:20:29;;;;;;;;;;;;;;;22.91;62.01;101686.75;4935101;28;2744;-70
2022/10/31 09:22:57;;;;;;;;;;;;;;;22.97;61.32;101673.31;4903806;29;1545;-71
2022/10/31 09:25:23;;;;;;;;;;;;;;;23.00;61.56;101677.84;4936544;28;1573;-68
2022/10/31 09:28:04;;;;;;;;;;;;;;;23.05;61.77;101680.94;4934293;28;3154;-72
2022/10/31 09:30:31;;;;;;;;;;;;;;;23.05;61.66;101686.72;4936616;28;3192;-71
2022/10/31 09:32:58;;;;;;;;;;;;;;;22.72;62.31;101699.50;4935395;28;3029;-71
2022/10/31 09:35:25;;;;;;;;;;;;;;;22.58;62.97;101691.63;4932152;28;1629;-72
2022/10/31 09:37:54;;;;;;;;;;;;;;;22.57;63.14;101698.81;4916324;29;3405;-68
2022/10/31 09:40:21;;;;;;;;;;;;;;;22.42;63.33;101699.47;4937469;28;1936;-70
2022/10/31 09:42:51;;;;;;;;;;;;;;;22.38;63.73;101700.03;4937274;28;3082;-71
2022/10/31 09:45:25;;;;;;;;;;;;;;;22.36;63.71;101690.53;4924894;29;2980;-70
2022/10/31 09:48:07;;;;;;;;;;;;;;;22.32;63.88;101701.84;4932817;28;3277;-70
2022/10/31 09:50:43;;;;;;;;;;;;;;;22.35;63.79;101701.28;4936003;28;2872;-72
2022/10/31 09:53:37;;;;;;;;;;;;;;;22.53;63.44;101704.38;4918028;29;4865;-67
2022/10/31 09:56:06;;;;;;;;;;;;;;;22.58;63.48;101706.06;4922389;29;5023;-75
2022/10/31 09:58:33;;;;;;;;;;;;;;;22.76;63.00;101702.63;4931895;28;3201;-67
2022/10/31 10:01:03;;;;;;;;;;;;;;;22.83;62.47;101695.75;4914717;28;4883;-71
2022/10/31 10:03:35;;;;;;;;;;;;;;;22.80;62.77;101691.25;4932378;28;2953;-69
2022/10/31 10:06:14;;;;;;;;;;;;;;;22.87;62.61;101695.22;4920261;29;3257;-65
2022/10/31 10:09:16;;;;;;;;;;;;;;;22.88;62.49;101690.91;4926022;29;3002;-69
2022/10/31 10:12:14;;;;;;;;;;;;;;;22.79;62.78;101695.53;4943596;28;3343;-67
2022/10/31 10:14:44;;;;;;;;;;;;;;;22.78;62.77;101699.81;4920403;29;3257;-68
2022/10/31 10:17:23;;;;;;;;;;;;;;;22.78;62.77;101694.78;4919011;29;2961;-69
2022/10/31 10:19:53;;;;;;;;;;;;;;;22.89;62.49;101690.28;4933841;28;3845;-71
2022/10/31 10:22:29;;;;;;;;;;;;;;;22.84;62.70;101688.59;4919840;29;1623;-69
2022/10/31 10:25:10;;;;;;;;;;;;;;;22.73;63.05;101683.69;4916035;29;3217;-69
2022/10/31 10:27:55;;;;;;;;;;;;;;;22.72;63.27;101679.31;4918366;29;3094;-71
2022/10/31 10:30:23;;;;;;;;;;;;;;;22.72;63.18;101679.31;4915162;29;3111;-71
2022/10/31 10:33:02;;;;;;;;;;;;;;;22.71;62.94;101680.72;4933597;28;3108;-68
2022/10/31 10:35:30;;;;;;;;;;;;;;;22.84;62.95;101685.69;4918000;29;3106;-67
2022/10/31 10:38:14;;;;;;;;;;;;;;;22.77;63.24;101683.91;4912053;28;3149;-66
2022/10/31 10:40:41;;;;;;;;;;;;;;;22.81;63.02;101689.84;4910762;29;3297;-67
2022/10/31 10:43:21;;;;;;;;;;;;;;;22.87;63.37;101684.41;4915004;28;3136;-68
2022/10/31 10:48:54;;;;;;;;;;;;;;;22.65;63.55;101680.41;4909572;29;3189;-63
2022/10/31 10:51:22;;;;;;;;;;;;;;;22.27;62.72;101677.06;4909075;29;4473;-71
2022/10/31 10:54:13;;;;;;;;;;;;;;;22.37;62.81;101674.69;4909541;29;3115;-71
2022/10/31 10:56:42;;;;;;;;;;;;;;;22.52;63.05;101668.25;4918253;29;2985;-67
2022/10/31 10:59:09;;;;;;;;;;;;;;;22.92;62.88;101668.00;4912505;29;3131;-70
2022/10/31 11:01:36;;;;;;;;;;;;;;;23.00;62.67;101674.97;4912001;29;3164;-73
2022/10/31 11:04:02;;;;;;;;;;;;;;;23.00;62.32;101674.97;4919737;29;3014;-67
2022/10/31 11:06:28;;;;;;;;;;;;;;;23.09;62.34;101669.56;4917632;29;2764;-69
2022/10/31 11:08:55;;;;;;;;;;;;;;;23.07;62.40;101667.34;4915707;28;2990;-67
2022/10/31 11:11:25;;;;;;;;;;;;;;;23.04;62.50;101676.53;4916737;29;3156;-69
2022/10/31 11:14:12;;;;;;;;;;;;;;;23.02;62.84;101670.66;4916635;29;3014;-67
2022/10/31 11:16:39;;;;;;;;;;;;;;;22.93;62.75;101669.50;4919347;29;2998;-69
2022/10/31 11:19:14;;;;;;;;;;;;;;;22.86;63.05;101671.34;4932617;28;3110;-69
2022/10/31 11:21:41;;;;;;;;;;;;;;;22.91;63.22;101666.53;4921890;28;2510;-71
2022/10/31 11:24:10;;;;;;;;;;;;;;;22.98;63.10;101671.19;4923827;28;3129;-71
2022/10/31 11:26:40;;;;;;;;;;;;;;;23.03;63.12;101672.19;4919862;29;3121;-71
2022/10/31 11:29:12;;;;;;;;;;;;;;;23.07;62.77;101672.38;4920464;29;3177;-69
2022/10/31 11:31:38;;;;;;;;;;;;;;;23.09;62.71;101676.09;4921781;29;3019;-68
2022/10/31 11:34:06;;;;;;;;;;;;;;;23.12;62.80;101668.28;4917745;29;2817;-67
2022/10/31 11:36:33;;;;;;;;;;;;;;;23.12;62.97;101668.28;4912370;29;2683;-67
2022/10/31 11:38:59;;;;;;;;;;;;;;;23.17;63.12;101669.97;4915993;29;2939;-72
2022/10/31 11:41:27;;;;;;;;;;;;;;;23.09;63.23;101664.56;4933732;28;3119;-68
2022/10/31 11:43:57;;;;;;;;;;;;;;;23.10;63.08;101662.41;4917720;28;2449;-70
2022/10/31 11:46:33;;;;;;;;;;;;;;;23.11;63.32;101661.75;4920483;28;3761;-67
2022/10/31 11:48:59;;;;;;;;;;;;;;;23.06;63.38;101665.81;4930194;28;2945;-67
2022/10/31 11:51:27;;;;;;;;;;;;;;;23.07;63.70;101663.72;4915224;28;2967;-59
2022/10/31 11:53:54;;;;;;;;;;;;;;;23.09;63.69;101658.00;4915380;29;3165;-70
2022/10/31 11:56:28;;;;;;;;;;;;;;;23.11;63.23;101661.00;4929582;28;3188;-70
2022/10/31 11:58:55;;;;;;;;;;;;;;;23.15;63.36;101661.19;4917152;29;3603;-66
2022/10/31 12:01:25;;;;;;;;;;;;;;;22.77;65.60;101658.66;4912504;29;3248;-65
2022/10/31 12:04:06;;;;;;;;;;;;;;;22.55;65.35;101658.28;4918509;29;3124;-66
2022/10/31 12:06:33;;;;;;;;;;;;;;;22.56;65.00;101654.03;4928203;28;3301;-67
2022/10/31 12:09:00;;;;;;;;;;;;;;;22.69;63.41;101658.25;4916121;29;3137;-65
2022/10/31 12:11:45;;;;;;;;;;;;;;;22.74;62.80;101647.66;4917886;29;3215;-70
2022/10/31 12:14:37;;;;;;;;;;;;;;;22.64;61.82;101650.03;4916189;29;3089;-69
2022/10/31 12:17:06;;;;;;;;;;;;;;;22.48;61.77;101642.06;4920403;29;3317;-72
2022/10/31 12:19:35;;;;;;;;;;;;;;;22.61;61.69;101640.53;4918351;29;2934;-69
2022/10/31 12:22:20;;;;;;;;;;;;;;;22.85;60.68;101635.19;4917498;29;3090;-69
2022/10/31 12:24:52;;;;;;;;;;;;;;;22.46;61.03;101644.09;4927734;28;3397;-63
2022/10/31 12:27:22;;;;;;;;;;;;;;;22.14;60.57;101635.25;4908855;29;3257;-66
2022/10/31 12:29:58;;;;;;;;;;;;;;;22.21;61.16;101639.97;4911273;29;4453;-61
2022/10/31 12:32:39;;;;;;;;;;;;;;;22.40;60.49;101638.75;4915544;29;3127;-67
2022/10/31 12:35:24;;;;;;;;;;;;;;;22.62;60.11;101644.91;4914338;29;3378;-67
2022/10/31 12:37:50;;;;;;;;;;;;;;;22.59;59.88;101644.06;4914598;29;3057;-66
2022/10/31 12:40:29;;;;;;;;;;;;;;;22.57;59.67;101637.44;4917637;29;3153;-69
2022/10/31 12:42:58;;;;;;;;;;;;;;;22.57;59.56;101629.53;4913313;29;3038;-70
2022/10/31 12:45:44;;;;;;;;;;;;;;;22.58;59.57;101631.00;4915388;29;3412;-69
2022/10/31 12:48:11;;;;;;;;;;;;;;;22.67;59.58;101623.50;4913134;29;4541;-68
2022/10/31 12:50:40;;;;;;;;;;;;;;;22.56;59.29;101624.41;4917231;29;3215;-63
2022/10/31 12:53:07;;;;;;;;;;;;;;;22.58;59.61;101624.50;4919531;29;2975;-71
2022/10/31 12:55:46;;;;;;;;;;;;;;;22.75;59.41;101626.78;4917162;28;3498;-66
2022/10/31 12:58:23;;;;;;;;;;;;;;;22.98;58.76;101614.19;4918907;29;2934;-67
2022/10/31 13:00:51;;;;;;;;;;;;;;;23.02;58.71;101619.44;4919548;29;2941;-65
2022/10/31 13:03:44;;;;;;;;;;;;;;;23.05;58.65;101605.84;4916060;29;3114;-65
2022/10/31 13:06:12;;;;;;;;;;;;;;;23.03;58.76;101612.25;4913968;29;3130;-67
2022/10/31 13:08:40;;;;;;;;;;;;;;;23.15;58.75;101615.72;4916830;29;3680;-63
2022/10/31 13:11:09;;;;;;;;;;;;;;;23.12;59.05;101613.38;4912206;29;4569;-68
2022/10/31 13:13:39;;;;;;;;;;;;;;;22.61;58.63;101617.44;4918572;29;2983;-72
2022/10/31 13:16:10;;;;;;;;;;;;;;;22.57;59.04;101623.00;4915937;28;3075;-70